Time;durP1;ratioP1;P1;durP2;ratioP2;P2;SDS_P1;SDS_P2;PMS_P1;PMS_P2;Temp;Humidity;BMP_temperature;BMP_pressure;BME280_temperature;BME280_humidity;BME280_pressure;Samples;Min_cycle;Max_cycle;Signal;HPM_P1;HPM_P2
2021/03/26 00:02:05;;;;;;;13.20;8.13;;;4.10;99.90;;;;;;5013982;28;20042;-48
2021/03/26 00:04:31;;;;;;;12.90;6.38;;;4.10;99.90;;;;;;5014308;28;20192;-48
2021/03/26 00:06:57;;;;;;;12.35;6.70;;;4.30;99.90;;;;;;5014077;28;20548;-50
2021/03/26 00:09:30;;;;;;;12.75;6.03;;;4.20;99.90;;;;;;5013480;28;20038;-48
2021/03/26 00:11:59;;;;;;;16.40;8.18;;;4.30;99.90;;;;;;5013269;28;20400;-48
2021/03/26 00:14:24;;;;;;;11.95;6.85;;;4.30;99.90;;;;;;5019604;28;20091;-48
2021/03/26 00:16:50;;;;;;;31.35;13.35;;;;;;;;;;5035575;28;20033;-48
2021/03/26 00:19:17;;;;;;;30.20;10.88;;;4.60;99.90;;;;;;5035811;28;20018;-48
2021/03/26 00:21:42;;;;;;;22.35;9.70;;;4.70;99.90;;;;;;5035878;28;20025;-48
2021/03/26 00:24:09;;;;;;;24.20;11.80;;;4.70;99.90;;;;;;5035718;28;20040;-48
2021/03/26 00:26:35;;;;;;;14.18;6.88;;;4.60;99.90;;;;;;5035703;28;20036;-48
2021/03/26 00:29:00;;;;;;;17.83;8.90;;;4.40;99.90;;;;;;5016989;28;20033;-48
2021/03/26 00:31:27;;;;;;;15.85;7.25;;;4.40;99.90;;;;;;4984213;28;20051;-48
2021/03/26 00:33:52;;;;;;;13.85;6.03;;;4.50;99.90;;;;;;5035513;28;20392;-48
2021/03/26 00:36:18;;;;;;;13.15;6.85;;;4.50;99.90;;;;;;5035665;28;20025;-48
2021/03/26 00:38:44;;;;;;;20.67;10.25;;;4.50;99.90;;;;;;5016805;28;20037;-48
2021/03/26 00:41:10;;;;;;;20.27;9.55;;;;;;;;;;5035583;28;20104;-48
2021/03/26 00:43:36;;;;;;;29.35;12.60;;;4.90;99.90;;;;;;5038735;28;20033;-48
2021/03/26 00:46:02;;;;;;;34.95;14.93;;;5.00;99.90;;;;;;5055314;28;20083;-48
2021/03/26 00:48:28;;;;;;;34.08;15.68;;;5.10;99.90;;;;;;5055302;28;20029;-48
2021/03/26 00:51:00;;;;;;;30.25;14.98;;;5.10;99.90;;;;;;5003649;28;20051;-48
2021/03/26 00:53:30;;;;;;;31.30;14.63;;;5.20;99.90;;;;;;4993541;28;20087;-48
2021/03/26 00:55:56;;;;;;;30.00;13.98;;;5.40;99.90;;;;;;4993295;28;20070;-48
2021/03/26 00:58:23;;;;;;;28.77;14.70;;;5.50;99.90;;;;;;4993653;28;20065;-48
2021/03/26 01:00:50;;;;;;;30.20;15.73;;;5.70;99.90;;;;;;4977026;28;20475;-48
2021/03/26 01:03:18;;;;;;;18.05;10.35;;;5.50;99.90;;;;;;4993354;28;20038;-47
2021/03/26 01:05:47;;;;;;;15.85;7.80;;;4.60;99.90;;;;;;4960706;28;20031;-48
2021/03/26 01:08:13;;;;;;;15.13;8.15;;;4.00;99.90;;;;;;4973706;28;20039;-48
2021/03/26 01:10:51;;;;;;;13.02;7.50;;;3.90;99.90;;;;;;4972554;28;20513;-47
2021/03/26 01:13:18;;;;;;;24.73;10.88;;;4.30;99.90;;;;;;4971307;28;20045;-47
2021/03/26 01:15:45;;;;;;;21.67;10.15;;;4.20;99.90;;;;;;4973708;28;20046;-48
2021/03/26 01:18:29;;;;;;;19.70;9.40;;;3.80;99.90;;;;;;4957497;28;20062;-48
2021/03/26 01:20:57;;;;;;;23.42;9.40;;;3.70;99.90;;;;;;4972671;28;20417;-48
2021/03/26 01:23:25;;;;;;;41.08;15.60;;;3.40;99.90;;;;;;4977936;28;20030;-48
2021/03/26 01:25:51;;;;;;;41.35;17.20;;;3.60;99.90;;;;;;5032550;28;20075;-48
2021/03/26 01:28:19;;;;;;;20.60;10.80;;;3.80;99.90;;;;;;5032361;28;20143;-47
2021/03/26 01:30:46;;;;;;;18.55;9.70;;;3.80;99.90;;;;;;5032125;28;20100;-47
2021/03/26 01:33:12;;;;;;;17.40;9.50;;;3.80;99.90;;;;;;5032175;28;20041;-47
2021/03/26 01:35:39;;;;;;;17.52;9.32;;;3.80;99.90;;;;;;4982771;28;20045;-47
2021/03/26 01:38:07;;;;;;;25.08;11.77;;;3.70;99.90;;;;;;5031915;28;20104;-47
2021/03/26 01:40:40;;;;;;;21.02;11.23;;;3.50;99.90;;;;;;5032146;28;20040;-48
2021/03/26 01:43:08;;;;;;;22.25;10.95;;;;;;;;;;4999128;28;20033;-48
2021/03/26 01:45:34;;;;;;;25.42;10.43;;;3.10;99.90;;;;;;5032751;28;20037;-48
2021/03/26 01:48:00;;;;;;;13.43;7.28;;;3.20;99.90;;;;;;5034214;28;20029;-48
2021/03/26 01:50:28;;;;;;;15.77;8.35;;;;;;;;;;5034153;28;20029;-48
2021/03/26 01:52:55;;;;;;;16.00;8.15;;;;;;;;;;5034070;28;20038;-48
2021/03/26 01:55:43;;;;;;;15.52;8.00;;;3.00;99.90;;;;;;5034153;28;20048;-49
2021/03/26 01:58:11;;;;;;;14.18;7.85;;;3.10;99.90;;;;;;5034011;28;20029;-48
2021/03/26 02:00:51;;;;;;;16.80;8.32;;;3.30;99.90;;;;;;5034016;28;20064;-48
2021/03/26 02:03:29;;;;;;;19.52;8.18;;;3.30;99.90;;;;;;5033888;28;20083;-49
2021/03/26 02:06:01;;;;;;;14.05;7.35;;;3.40;99.90;;;;;;5034089;28;20093;-48
2021/03/26 02:08:37;;;;;;;15.60;7.43;;;3.50;99.90;;;;;;5033907;28;20052;-48
2021/03/26 02:11:14;;;;;;;12.52;6.60;;;3.70;99.90;;;;;;4982657;28;20113;-48
2021/03/26 02:13:41;;;;;;;12.40;7.05;;;3.60;99.90;;;;;;5034039;28;20346;-47
2021/03/26 02:16:08;;;;;;;11.90;7.13;;;3.90;99.90;;;;;;5015706;28;20038;-48
2021/03/26 02:18:37;;;;;;;11.27;6.15;;;3.90;99.90;;;;;;5033805;28;20079;-47
2021/03/26 02:21:26;;;;;;;10.90;5.97;;;3.80;99.90;;;;;;5033149;28;20032;-51
2021/03/26 02:23:55;;;;;;;12.77;6.80;;;3.50;99.90;;;;;;5035821;28;20064;-47
2021/03/26 02:26:27;;;;;;;13.52;6.20;;;3.20;99.90;;;;;;5035071;28;20060;-47
2021/03/26 02:28:54;;;;;;;10.38;6.15;;;;;;;;;;5034437;28;20025;-48
2021/03/26 02:31:20;;;;;;;17.98;6.93;;;3.20;99.90;;;;;;5034988;28;20025;-48
2021/03/26 02:33:47;;;;;;;10.98;6.07;;;3.10;99.90;;;;;;5033683;28;20100;-48
2021/03/26 02:36:13;;;;;;;9.15;4.82;;;3.30;99.90;;;;;;5033635;28;20041;-47
2021/03/26 02:38:43;;;;;;;13.43;6.10;;;3.10;99.90;;;;;;5033175;28;20040;-47
2021/03/26 02:41:08;;;;;;;13.05;6.72;;;3.10;99.90;;;;;;5033356;28;20029;-48
2021/03/26 02:43:37;;;;;;;11.20;5.60;;;;;;;;;;5036651;28;20057;-47
2021/03/26 02:46:17;;;;;;;15.07;6.90;;;;;;;;;;5053259;28;20040;-49
2021/03/26 02:48:53;;;;;;;12.65;7.20;;;4.20;99.90;;;;;;5053309;28;20044;-49
2021/03/26 02:51:30;;;;;;;14.13;6.80;;;4.40;99.90;;;;;;5053312;28;20036;-48
2021/03/26 02:54:19;;;;;;;10.13;5.32;;;4.50;99.90;;;;;;5051865;28;20033;-51
2021/03/26 02:57:04;;;;;;;11.15;5.78;;;4.60;99.90;;;;;;5040667;28;20399;-48
2021/03/26 02:59:43;;;;;;;14.30;7.85;;;4.70;99.90;;;;;;5052768;28;20021;-48
2021/03/26 03:02:13;;;;;;;19.35;9.60;;;4.50;99.90;;;;;;5053165;28;20029;-49
2021/03/26 03:05:14;;;;;;;24.25;10.55;;;4.10;99.90;;;;;;5053445;28;20024;-49
2021/03/26 03:08:09;;;;;;;26.02;12.30;;;3.90;99.90;;;;;;4953055;29;20051;-48
2021/03/26 03:10:47;;;;;;;16.02;7.70;;;3.90;99.90;;;;;;4953252;29;20045;-48
2021/03/26 03:13:16;;;;;;;21.05;9.65;;;3.90;99.90;;;;;;4949968;29;20416;-48
2021/03/26 03:15:59;;;;;;;22.92;10.45;;;3.70;99.90;;;;;;4951753;29;20055;-49
2021/03/26 03:18:33;;;;;;;11.90;6.85;;;4.00;99.90;;;;;;4924049;29;20082;-48
2021/03/26 03:21:05;;;;;;;11.95;6.53;;;;;;;;;;4914794;29;20068;-48
2021/03/26 03:23:36;;;;;;;9.27;5.75;;;;;;;;;;4914862;29;20082;-48
2021/03/26 03:26:32;;;;;;;12.55;6.40;;;3.20;99.90;;;;;;4915035;29;20368;-49
2021/03/26 03:28:58;;;;;;;14.20;7.57;;;3.20;99.90;;;;;;4913779;29;20048;-48
2021/03/26 03:31:35;;;;;;;11.98;6.72;;;2.90;99.90;;;;;;4898896;29;20047;-48
2021/03/26 03:34:26;;;;;;;13.55;6.68;;;2.70;99.90;;;;;;4917169;29;20040;-48
2021/03/26 03:37:09;;;;;;;15.07;6.57;;;2.60;99.90;;;;;;4861731;29;20121;-48
2021/03/26 03:39:54;;;;;;;12.63;6.57;;;2.70;99.90;;;;;;4846573;29;20394;-48
2021/03/26 03:42:30;;;;;;;10.27;5.82;;;2.80;99.90;;;;;;4862022;29;20121;-49
2021/03/26 03:45:05;;;;;;;14.65;6.88;;;2.90;99.90;;;;;;4914329;29;20131;-48
2021/03/26 03:47:46;;;;;;;11.05;4.95;;;3.10;99.90;;;;;;4937160;29;20123;-48
2021/03/26 03:50:31;;;;;;;9.93;5.60;;;3.10;99.90;;;;;;4968676;28;20130;-48
2021/03/26 03:53:17;;;;;;;10.85;4.85;;;3.00;99.90;;;;;;4975419;28;20069;-48
2021/03/26 03:56:00;;;;;;;8.63;5.22;;;3.00;99.90;;;;;;4975474;28;20478;-48
2021/03/26 03:58:34;;;;;;;9.27;4.75;;;;;;;;;;4942963;28;20390;-48
2021/03/26 04:01:22;;;;;;;10.57;5.18;;;3.50;99.90;;;;;;4975361;28;20034;-48
2021/03/26 04:03:52;;;;;;;9.25;5.38;;;;;;;;;;4975455;28;20486;-48
2021/03/26 04:06:50;;;;;;;8.63;4.63;;;4.00;99.90;;;;;;4975102;28;20513;-48
2021/03/26 04:09:20;;;;;;;12.02;5.70;;;3.70;99.90;;;;;;4936698;29;20448;-48
2021/03/26 04:11:52;;;;;;;28.75;11.88;;;3.40;99.90;;;;;;4920872;29;20043;-48
2021/03/26 04:14:38;;;;;;;15.35;7.50;;;2.90;99.90;;;;;;4961297;28;20202;-48
2021/03/26 04:17:08;;;;;;;11.65;5.38;;;;;;;;;;4974990;28;20034;-48
2021/03/26 04:19:40;;;;;;;8.38;4.32;;;2.90;99.90;;;;;;4974942;28;20117;-48
2021/03/26 04:22:10;;;;;;;9.55;5.03;;;2.90;99.90;;;;;;4974972;28;20030;-48
2021/03/26 04:24:45;;;;;;;9.15;5.03;;;2.90;99.90;;;;;;4974888;28;20403;-48
2021/03/26 04:27:37;;;;;;;8.27;4.25;;;2.80;99.90;;;;;;4974737;28;20062;-48
2021/03/26 04:30:02;;;;;;;8.98;4.50;;;2.50;99.90;;;;;;4974803;28;20460;-48
2021/03/26 04:32:28;;;;;;;8.82;4.60;;;2.50;99.90;;;;;;4974788;28;20115;-48
2021/03/26 04:34:54;;;;;;;8.45;4.43;;;2.30;99.90;;;;;;4974814;28;20039;-48
2021/03/26 04:37:25;;;;;;;6.63;3.70;;;2.40;99.90;;;;;;4974642;28;20139;-49
2021/03/26 04:40:04;;;;;;;5.65;3.35;;;2.50;99.90;;;;;;4974691;28;20035;-48
2021/03/26 04:42:41;;;;;;;5.80;3.03;;;2.60;99.90;;;;;;4942342;28;20434;-48
2021/03/26 04:45:19;;;;;;;8.00;3.72;;;2.70;99.90;;;;;;5023407;28;20052;-49
2021/03/26 04:47:57;;;;;;;7.22;3.33;;;2.70;99.90;;;;;;5055579;28;20025;-49
2021/03/26 04:50:30;;;;;;;6.63;3.83;;;2.50;99.90;;;;;;5055120;28;20137;-48
2021/03/26 04:53:16;;;;;;;5.93;3.38;;;2.60;99.90;;;;;;5003701;28;20040;-47
2021/03/26 04:55:49;;;;;;;7.30;3.75;;;2.40;99.90;;;;;;5055126;28;20078;-48
2021/03/26 04:58:27;;;;;;;9.10;4.28;;;2.40;99.90;;;;;;5054897;28;20021;-48
2021/03/26 05:01:07;;;;;;;9.55;3.92;;;2.50;99.90;;;;;;5055056;28;20515;-48
2021/03/26 05:03:35;;;;;;;6.68;3.85;;;2.50;99.90;;;;;;5054911;28;20060;-48
2021/03/26 05:06:31;;;;;;;7.93;3.70;;;;;;;;;;5003571;28;20465;-48
2021/03/26 05:09:00;;;;;;;6.97;4.50;;;;;;;;;;4954628;29;20480;-48
2021/03/26 05:11:30;;;;;;;14.40;6.13;;;3.00;99.90;;;;;;4954789;29;20038;-48
2021/03/26 05:14:02;;;;;;;9.32;6.05;;;3.40;99.90;;;;;;4954405;29;20039;-48
2021/03/26 05:16:44;;;;;;;12.45;7.65;;;;;;;;;;4953092;29;20035;-48
2021/03/26 05:19:26;;;;;;;10.35;6.35;;;;;;;;;;4954298;29;20106;-48
2021/03/26 05:21:52;;;;;;;;;;;;;;;;;;4954609;29;20123;-48
2021/03/26 05:24:29;;;;;;;8.73;4.82;;;4.40;99.90;;;;;;4954518;29;19985;-48
2021/03/26 05:26:55;;;;;;;10.45;5.22;;;;;;;;;;4954385;29;20046;-48
2021/03/26 05:29:23;;;;;;;14.15;6.80;;;;;;;;;;4954151;29;20090;-48
2021/03/26 05:32:07;;;;;;;15.93;8.02;;;4.70;99.90;;;;;;4952881;29;20053;-48
2021/03/26 05:34:41;;;;;;;10.27;7.20;;;;;;;;;;4953921;29;20038;-49
2021/03/26 05:37:07;;;;;;;16.42;7.78;;;;;;;;;;4954080;29;20075;-49
2021/03/26 05:39:36;;;;;;;16.85;8.93;;;5.40;99.90;;;;;;4952569;29;20459;-49
2021/03/26 05:42:24;;;;;;;14.60;8.93;;;5.40;99.90;;;;;;4953911;29;20031;-48
2021/03/26 05:44:56;;;;;;;14.50;8.57;;;5.40;99.90;;;;;;4976520;28;20041;-48
2021/03/26 05:47:31;;;;;;;17.52;9.07;;;5.40;99.90;;;;;;5053302;28;21138;-48
2021/03/26 05:50:35;;;;;;;17.65;10.18;;;5.50;99.90;;;;;;5053884;28;20033;-48
2021/03/26 05:53:25;;;;;;;18.58;8.55;;;5.70;99.90;;;;;;5035077;28;20049;-48
2021/03/26 05:56:26;;;;;;;17.55;9.63;;;5.80;99.90;;;;;;5033249;28;20026;-48
2021/03/26 05:59:13;;;;;;;20.52;9.55;;;;;;;;;;4918350;29;20047;-48
2021/03/26 06:02:16;;;;;;;19.95;9.85;;;6.60;99.90;;;;;;4942892;29;20039;-48
2021/03/26 06:05:03;;;;;;;21.88;12.43;;;;;;;;;;4949213;29;20530;-49
2021/03/26 06:07:35;;;;;;;24.85;13.48;;;;;;;;;;4953428;29;20082;-48
2021/03/26 06:10:32;;;;;;;24.52;13.57;;;6.50;99.90;;;;;;4953648;29;20035;-49
2021/03/26 06:13:17;;;;;;;23.30;12.13;;;;;;;;;;4921329;29;20027;-49
2021/03/26 06:16:15;;;;;;;15.60;8.60;;;6.30;99.90;;;;;;4953370;29;20043;-47
2021/03/26 06:19:07;;;;;;;17.50;8.27;;;5.50;99.90;;;;;;4953421;29;20102;-48
2021/03/26 06:21:50;;;;;;;12.25;7.45;;;5.30;99.90;;;;;;4953476;29;20040;-49
2021/03/26 06:24:40;;;;;;;24.02;12.07;;;5.90;99.90;;;;;;4951687;29;20065;-48
2021/03/26 06:27:19;;;;;;;25.60;12.85;;;;;;;;;;4953228;29;20087;-49
2021/03/26 06:29:45;;;;;;;20.05;9.25;;;6.30;99.90;;;;;;4934301;29;20027;-47
2021/03/26 06:32:13;;;;;;;17.30;8.75;;;6.50;99.90;;;;;;4934154;29;20035;-49
2021/03/26 06:34:54;;;;;;;17.85;8.35;;;6.50;99.90;;;;;;4990194;28;20037;-47
2021/03/26 06:37:32;;;;;;;12.93;7.50;;;6.60;99.90;;;;;;5033536;28;20053;-47
2021/03/26 06:40:01;;;;;;;14.77;8.77;;;6.70;99.90;;;;;;5044195;28;20657;-48
2021/03/26 06:42:58;;;;;;;15.63;8.27;;;6.80;99.90;;;;;;5052447;28;20029;-48
2021/03/26 06:45:24;;;;;;;16.60;8.43;;;;;;;;;;5053124;28;20053;-49
2021/03/26 06:48:11;;;;;;;18.38;9.02;;;7.30;99.90;;;;;;5053221;28;20032;-48
2021/03/26 06:51:00;;;;;;;15.57;8.40;;;7.50;99.90;;;;;;5053139;28;20036;-49
2021/03/26 06:53:26;;;;;;;18.85;10.05;;;7.70;99.90;;;;;;5053278;28;20032;-49
2021/03/26 06:56:21;;;;;;;26.08;12.80;;;7.70;99.90;;;;;;5053031;28;20047;-49
2021/03/26 06:59:21;;;;;;;22.45;12.00;;;8.40;99.90;;;;;;5053378;28;20410;-49
2021/03/26 07:02:05;;;;;;;24.05;12.20;;;8.70;99.90;;;;;;5053191;28;20049;-48
2021/03/26 07:04:52;;;;;;;14.00;8.43;;;9.30;99.90;;;;;;5053358;28;20511;-48
2021/03/26 07:08:03;;;;;;;13.27;8.15;;;9.10;99.90;;;;;;5054647;28;20021;-49
2021/03/26 07:11:00;;;;;;;16.42;9.13;;;9.70;99.90;;;;;;5021995;28;20086;-48
2021/03/26 07:13:31;;;;;;;14.13;8.10;;;;;;;;;;5057308;28;20036;-49
2021/03/26 07:16:41;;;;;;;15.65;8.88;;;10.60;99.90;;;;;;5054078;28;20033;-49
2021/03/26 07:19:17;;;;;;;15.75;9.38;;;;;;;;;;5056901;28;20029;-49
2021/03/26 07:22:21;;;;;;;13.32;8.77;;;11.40;99.90;;;;;;5057219;28;20028;-48
2021/03/26 07:24:59;;;;;;;17.10;8.93;;;;;;;;;;5056972;28;20383;-48
2021/03/26 07:27:36;;;;;;;15.00;7.35;;;12.10;99.90;;;;;;5055020;28;20116;-49
2021/03/26 07:30:42;;;;;;;20.48;9.88;;;12.50;99.90;;;;;;5056621;28;20361;-49
2021/03/26 07:33:41;;;;;;;13.45;6.95;;;12.80;99.90;;;;;;5021529;28;20137;-48
2021/03/26 07:36:24;;;;;;;11.73;6.68;;;13.30;99.90;;;;;;4956346;29;20047;-49
2021/03/26 07:38:50;;;;;;;;;;;;;;;;;;4955506;29;20043;-50
2021/03/26 07:41:34;;;;;;;13.07;6.07;;;;;;;;;;4956088;28;19907;-48
2021/03/26 07:44:16;;;;;;;12.18;5.90;;;;;;;;;;4956222;29;20059;-48
2021/03/26 07:47:15;;;;;;;10.98;5.90;;;13.90;99.90;;;;;;4956349;29;20130;-47
2021/03/26 07:50:17;;;;;;;7.35;4.15;;;14.60;99.90;;;;;;4956065;28;20032;-49
2021/03/26 07:52:52;;;;;;;9.10;4.07;;;;;;;;;;4953873;29;20077;-49
2021/03/26 07:55:21;;;;;;;85.15;35.30;;;;;;;;;;4954185;29;20073;-48
2021/03/26 07:57:56;;;;;;;7.65;4.32;;;;;;;;;;4955980;29;20023;-47
2021/03/26 08:01:03;;;;;;;6.03;3.25;;;13.50;85.10;;;;;;4955904;29;20035;-48
2021/03/26 08:03:47;;;;;;;6.00;3.00;;;13.90;90.50;;;;;;4879967;29;20037;-48
2021/03/26 08:06:32;;;;;;;6.28;4.07;;;;;;;;;;4879139;29;20044;-49
2021/03/26 08:09:12;;;;;;;6.72;3.92;;;;;;;;;;4880000;29;20048;-50
2021/03/26 08:11:57;;;;;;;7.72;4.43;;;;;;;;;;4880002;29;20033;-50
2021/03/26 08:14:42;;;;;;;10.25;7.00;;;;;;;;;;4955852;29;20195;-48
2021/03/26 08:17:11;;;;;;;8.25;3.97;;;;;;;;;;4939531;29;20043;-48
2021/03/26 08:19:43;;;;;;;6.07;3.80;;;;;;;;;;4954754;28;20047;-48
2021/03/26 08:22:09;;;;;;;;;;;;;;;;;;4955978;29;20195;-48
2021/03/26 08:24:41;;;;;;;8.13;4.22;;;;;;;;;;4955812;29;19950;-48
2021/03/26 08:27:18;;;;;;;7.20;3.75;;;;;;;;;;4954529;29;20070;-48
2021/03/26 08:29:44;;;;;;;5.47;3.60;;;;;;;;;;4953702;29;20185;-52
2021/03/26 08:32:25;;;;;;;9.55;5.00;;;;;;;;;;4937801;29;20523;-51
2021/03/26 08:34:55;;;;;;;9.68;4.80;;;;;;;;;;4954171;29;20055;-50
2021/03/26 08:37:37;;;;;;;10.65;5.63;;;16.30;69.60;;;;;;4950768;29;20035;-50
2021/03/26 08:40:06;;;;;;;6.25;3.88;;;15.70;58.90;;;;;;4986593;28;20443;-49
2021/03/26 08:42:40;;;;;;;12.15;5.90;;;15.50;56.90;;;;;;5004070;28;20040;-49
2021/03/26 08:45:10;;;;;;;23.10;10.98;;;;;;;;;;5055236;28;20044;-49
2021/03/26 08:47:48;;;;;;;29.65;11.70;;;16.60;57.80;;;;;;5055280;28;20025;-50
2021/03/26 08:50:17;;;;;;;15.45;7.07;;;;;;;;;;5054093;28;20032;-49
2021/03/26 08:52:56;;;;;;;8.70;4.78;;;17.20;54.70;;;;;;5055562;28;20435;-49
2021/03/26 08:55:44;;;;;;;9.43;4.82;;;18.20;57.00;;;;;;5055041;28;20128;-49
2021/03/26 08:58:18;;;;;;;9.48;5.47;;;;;;;;;;5055300;28;20037;-47
2021/03/26 09:00:50;;;;;;;9.23;5.32;;;;;;;;;;5055462;28;20108;-50
2021/03/26 09:03:34;;;;;;;;;;;19.70;53.70;;;;;;5055328;28;20075;-47
2021/03/26 09:06:06;;;;;;;7.90;4.78;;;18.60;61.80;;;;;;5055140;28;19905;-49
2021/03/26 09:08:50;;;;;;;8.27;4.30;;;;;;;;;;5055334;28;20063;-47
2021/03/26 09:11:35;;;;;;;8.60;4.75;;;19.40;52.80;;;;;;5018703;28;20103;-47
2021/03/26 09:14:31;;;;;;;7.82;4.45;;;19.50;52.80;;;;;;5054181;28;20465;-48
2021/03/26 09:17:16;;;;;;;8.50;5.20;;;19.70;52.30;;;;;;4970477;28;20250;-47
2021/03/26 09:19:51;;;;;;;18.05;9.20;;;;;;;;;;5054730;28;20025;-49
2021/03/26 09:22:45;;;;;;;10.35;5.20;;;19.90;67.40;;;;;;5054758;28;20025;-49
2021/03/26 09:25:35;;;;;;;10.90;6.10;;;;;;;;;;5052586;28;20079;-49
2021/03/26 09:28:27;;;;;;;10.30;6.00;;;;;;;;;;4954343;29;20043;-50
2021/03/26 09:31:14;;;;;;;10.75;5.80;;;;;;;;;;4918880;29;20043;-49
2021/03/26 09:33:53;;;;;;;8.98;5.40;;;;;;;;;;4940268;29;20027;-49
2021/03/26 09:36:21;;;;;;;9.45;5.68;;;;;;;;;;4950746;29;20051;-48
2021/03/26 09:38:52;;;;;;;10.55;5.75;;;;;;;;;;4969948;28;20142;-47
2021/03/26 09:41:30;;;;;;;10.38;6.63;;;;;;;;;;4954068;29;20620;-55
2021/03/26 09:44:05;;;;;;;8.35;5.07;;;21.30;50.10;;;;;;4954002;29;20055;-46
2021/03/26 09:46:43;;;;;;;10.18;5.18;;;;;;;;;;4951192;29;20078;-47
2021/03/26 09:49:15;;;;;;;10.30;5.07;;;;;;;;;;4953752;29;20035;-50
2021/03/26 09:51:45;;;;;;;8.60;4.80;;;20.80;74.90;;;;;;4954007;29;20039;-48
2021/03/26 09:54:19;;;;;;;9.35;5.88;;;20.40;47.80;;;;;;4953714;29;20050;-46
2021/03/26 09:56:48;;;;;;;10.43;5.30;;;;;;;;;;4953732;29;20620;-50
2021/03/26 10:00:10;;;;;;;19.88;8.95;;;21.70;49.00;;;;;;4951242;29;20043;-48
2021/03/26 10:02:38;;;;;;;12.80;7.43;;;;;;;;;;4896338;29;20037;-48
2021/03/26 10:05:17;;;;;;;12.73;6.00;;;22.40;47.80;;;;;;4937043;28;20042;-48
2021/03/26 10:07:52;;;;;;;12.48;5.57;;;22.70;48.60;;;;;;4956284;28;20039;-50
2021/03/26 10:13:03;;;;;;;10.75;6.88;;;23.00;48.90;;;;;;4966277;28;20406;-47
2021/03/26 10:15:55;;;;;;;11.02;6.22;;;23.40;48.20;;;;;;4958181;28;20047;-48
2021/03/26 10:18:32;;;;;;;10.07;5.53;;;23.40;46.80;;;;;;4968552;28;20043;-47
2021/03/26 10:21:00;;;;;;;13.57;6.30;;;22.80;46.40;;;;;;4972857;28;20510;-48
2021/03/26 10:23:38;;;;;;;7.97;4.90;;;22.40;48.00;;;;;;4972599;28;20042;-47
2021/03/26 10:26:18;;;;;;;10.07;6.20;;;21.80;46.90;;;;;;4940489;28;20120;-47
2021/03/26 10:28:44;;;;;;;11.35;6.05;;;22.10;48.70;;;;;;4933908;29;20444;-48
2021/03/26 10:31:13;;;;;;;11.98;6.97;;;;;;;;;;4918056;29;20091;-48
2021/03/26 10:33:52;;;;;;;11.00;5.70;;;;;;;;;;4933940;29;20498;-46
2021/03/26 10:36:33;;;;;;;9.88;5.57;;;;;;;;;;4956066;28;20522;-47
2021/03/26 10:39:10;;;;;;;10.03;5.87;;;23.70;47.10;;;;;;4991791;28;20054;-47
2021/03/26 10:41:45;;;;;;;9.63;5.60;;;;;;;;;;4958979;28;20273;-47
2021/03/26 10:44:46;;;;;;;12.80;6.88;;;24.30;46.20;;;;;;4983772;28;20046;-49
2021/03/26 10:47:28;;;;;;;13.95;6.78;;;24.40;46.20;;;;;;4972218;28;20422;-47
2021/03/26 10:50:22;;;;;;;12.02;6.15;;;24.10;47.50;;;;;;4972247;28;20102;-47
2021/03/26 10:53:16;;;;;;;11.82;7.40;;;24.30;47.00;;;;;;4972050;28;20034;-47
2021/03/26 10:55:47;;;;;;;10.82;6.30;;;24.60;46.40;;;;;;4972273;28;20039;-47
2021/03/26 10:58:39;;;;;;;11.80;6.53;;;24.40;45.90;;;;;;4972178;28;20077;-48
2021/03/26 11:01:15;;;;;;;12.57;7.22;;;24.50;47.00;;;;;;5033026;28;20026;-48
2021/03/26 11:04:02;;;;;;;12.73;6.68;;;24.60;46.40;;;;;;5033372;28;20029;-47
2021/03/26 11:06:37;;;;;;;10.25;6.63;;;;;;;;;;5033035;28;20079;-48
2021/03/26 11:09:22;;;;;;;10.68;6.53;;;24.70;46.70;;;;;;5032937;28;20401;-47
2021/03/26 11:11:57;;;;;;;12.13;7.43;;;24.00;47.20;;;;;;4989821;28;20060;-47
2021/03/26 11:14:42;;;;;;;12.85;7.10;;;;;;;;;;5032839;28;20533;-47
2021/03/26 11:17:15;;;;;;;12.32;7.40;;;23.00;48.10;;;;;;4997956;28;20380;-47
2021/03/26 11:20:06;;;;;;;13.68;8.68;;;23.40;48.10;;;;;;5031267;28;20033;-47
2021/03/26 11:22:34;;;;;;;10.38;6.38;;;23.50;49.10;;;;;;5021902;28;20037;-47
2021/03/26 11:25:19;;;;;;;12.18;8.45;;;23.80;45.70;;;;;;5020700;28;20025;-47
2021/03/26 11:27:49;;;;;;;10.35;6.05;;;24.30;46.80;;;;;;4989141;28;20050;-48
2021/03/26 11:30:24;;;;;;;10.60;6.50;;;23.80;46.50;;;;;;4991257;28;20414;-47
2021/03/26 11:32:58;;;;;;;11.05;6.65;;;24.00;46.20;;;;;;4971720;28;20461;-47
2021/03/26 11:35:26;;;;;;;11.60;6.50;;;;;;;;;;4938228;28;20043;-48
2021/03/26 11:37:57;;;;;;;10.85;6.88;;;24.30;46.00;;;;;;4970470;28;20050;-48
2021/03/26 11:40:46;;;;;;;13.25;7.72;;;24.10;47.80;;;;;;4970720;28;20034;-47
2021/03/26 11:43:14;;;;;;;15.57;7.55;;;24.00;49.70;;;;;;4970528;28;20137;-49
2021/03/26 11:45:47;;;;;;;12.27;6.97;;;24.00;47.50;;;;;;4989654;28;20417;-47
2021/03/26 11:48:25;;;;;;;11.15;7.10;;;23.70;47.70;;;;;;4957375;28;20117;-47
2021/03/26 11:50:51;;;;;;;10.77;5.68;;;23.90;47.20;;;;;;4989980;28;20023;-47
2021/03/26 11:53:38;;;;;;;8.20;5.55;;;23.90;46.90;;;;;;4990001;28;20399;-46
2021/03/26 11:56:08;;;;;;;11.75;6.55;;;23.80;46.60;;;;;;5007716;28;20038;-46
2021/03/26 11:58:52;;;;;;;10.82;6.20;;;23.70;48.20;;;;;;5013486;28;20037;-48
2021/03/26 12:01:22;;;;;;;9.13;6.20;;;23.30;47.30;;;;;;5035207;28;20029;-47
2021/03/26 12:04:15;;;;;;;13.57;7.90;;;23.10;47.50;;;;;;5035259;28;20033;-48
2021/03/26 12:06:56;;;;;;;12.13;6.97;;;23.20;48.20;;;;;;5034996;28;20033;-48
2021/03/26 12:09:29;;;;;;;9.75;5.95;;;23.50;47.60;;;;;;5035174;28;20017;-47
2021/03/26 12:12:01;;;;;;;11.55;6.88;;;23.40;46.20;;;;;;5034956;28;20021;-47
2021/03/26 12:14:53;;;;;;;11.48;5.88;;;23.40;47.10;;;;;;4999717;28;20065;-47
2021/03/26 12:17:21;;;;;;;12.15;7.43;;;23.30;48.10;;;;;;4935253;29;20044;-47
2021/03/26 12:19:57;;;;;;;12.38;6.75;;;22.90;47.40;;;;;;4935153;29;20111;-47
2021/03/26 12:22:33;;;;;;;11.00;6.45;;;23.00;49.40;;;;;;4935137;29;20036;-46
2021/03/26 12:25:15;;;;;;;12.85;7.43;;;23.00;48.50;;;;;;4935033;29;20155;-48
2021/03/26 12:27:46;;;;;;;11.57;6.47;;;22.70;48.30;;;;;;4935080;29;20195;-47
2021/03/26 12:30:12;;;;;;;12.43;6.97;;;23.30;48.50;;;;;;4934994;29;20043;-47
2021/03/26 12:32:44;;;;;;;11.88;6.13;;;23.40;48.60;;;;;;4935904;29;20262;-48
2021/03/26 12:35:18;;;;;;;12.52;7.20;;;;;;;;;;4935753;29;20047;-47
2021/03/26 12:37:59;;;;;;;11.05;6.60;;;22.10;86.70;;;;;;4935873;29;20039;-48
2021/03/26 12:40:43;;;;;;;8.98;5.93;;;22.00;48.70;;;;;;4935951;29;20120;-48
2021/03/26 12:43:23;;;;;;;13.10;6.78;;;22.30;48.20;;;;;;4936095;29;20032;-48
2021/03/26 12:46:18;;;;;;;11.32;5.97;;;22.00;49.10;;;;;;4955330;28;20051;-49
2021/03/26 12:49:04;;;;;;;12.80;7.00;;;21.80;50.10;;;;;;4939425;29;20044;-48
2021/03/26 12:51:39;;;;;;;12.88;7.18;;;21.60;49.30;;;;;;4945020;29;20448;-48
2021/03/26 12:54:14;;;;;;;11.65;6.72;;;;;;;;;;4979909;28;20072;-48
2021/03/26 12:56:52;;;;;;;12.50;6.63;;;22.20;48.60;;;;;;5054895;28;20037;-47
2021/03/26 12:59:29;;;;;;;11.07;5.97;;;22.20;48.80;;;;;;5054902;28;20036;-49
2021/03/26 13:02:04;;;;;;;10.13;6.22;;;22.80;49.00;;;;;;5054944;28;20028;-47
2021/03/26 13:04:54;;;;;;;11.38;7.07;;;22.00;48.70;;;;;;5054663;28;20028;-48
2021/03/26 13:07:25;;;;;;;12.98;7.70;;;;;;;;;;5054977;28;20040;-49
2021/03/26 13:10:20;;;;;;;11.15;6.57;;;22.40;47.40;;;;;;5018829;28;20566;-46
2021/03/26 13:12:48;;;;;;;13.35;7.40;;;22.40;48.90;;;;;;5047160;28;20094;-47
2021/03/26 13:15:22;;;;;;;12.70;7.63;;;22.30;48.30;;;;;;5053409;28;20025;-48
2021/03/26 13:17:49;;;;;;;12.45;7.18;;;22.40;48.70;;;;;;5001246;28;20047;-49
2021/03/26 13:20:18;;;;;;;13.25;7.35;;;22.70;49.00;;;;;;5054431;28;20418;-48
2021/03/26 13:22:52;;;;;;;10.18;6.15;;;22.40;49.50;;;;;;5018329;28;20495;-48
2021/03/26 13:25:27;;;;;;;11.50;6.40;;;22.50;48.20;;;;;;5053103;28;20021;-48
2021/03/26 13:27:55;;;;;;;11.68;6.55;;;22.00;48.30;;;;;;5002227;28;20073;-47
2021/03/26 13:30:50;;;;;;;14.02;7.15;;;;;;;;;;5054432;28;20039;-47
2021/03/26 13:33:40;;;;;;;11.10;6.55;;;21.80;78.60;;;;;;5054497;28;20033;-50
2021/03/26 13:36:14;;;;;;;11.48;6.82;;;21.90;78.80;;;;;;5054258;28;20040;-49
2021/03/26 13:38:41;;;;;;;13.75;7.63;;;21.60;78.00;;;;;;5054286;28;20419;-50
2021/03/26 13:41:17;;;;;;;12.45;6.78;;;21.80;78.80;;;;;;5054501;28;20468;-48
2021/03/26 13:43:45;;;;;;;13.73;6.70;;;21.60;78.70;;;;;;5053878;28;20134;-50
2021/03/26 13:46:31;;;;;;;12.32;7.22;;;;;;;;;;5054364;28;20026;-50
2021/03/26 13:49:08;;;;;;;12.13;6.68;;;;;;;;;;5052448;28;20025;-50
2021/03/26 13:51:37;;;;;;;11.02;6.30;;;;;;;;;;5053239;28;20153;-50
2021/03/26 13:54:18;;;;;;;11.27;6.47;;;21.80;90.30;;;;;;5054117;28;20071;-50
2021/03/26 13:56:50;;;;;;;12.43;7.00;;;22.20;74.70;;;;;;5054047;28;20036;-50
2021/03/26 13:59:30;;;;;;;10.90;6.75;;;21.70;63.90;;;;;;5052810;28;20036;-50
2021/03/26 14:01:59;;;;;;;12.55;7.38;;;21.90;64.50;;;;;;5001014;28;20043;-50
2021/03/26 14:04:25;;;;;;;10.27;6.15;;;21.70;63.60;;;;;;5052785;28;20106;-51